createdAt,value
2022-11-16T00:00:33.675Z,9.84
2022-11-16T00:02:59.932Z,10.01
2022-11-16T00:05:28.478Z,9.89
2022-11-16T00:07:54.896Z,9.93
2022-11-16T00:10:21.104Z,9.95
2022-11-16T00:12:47.346Z,10.09
2022-11-16T00:15:13.698Z,9.88
2022-11-16T00:17:39.925Z,10.07
2022-11-16T00:20:06.143Z,10.14
2022-11-16T00:22:32.389Z,10.20
2022-11-16T00:24:58.711Z,10.17
2022-11-16T00:27:25.000Z,10.17
2022-11-16T00:29:51.238Z,10.20
2022-11-16T00:32:17.453Z,10.21
2022-11-16T00:34:43.666Z,10.20
2022-11-16T00:37:09.890Z,10.18
2022-11-16T00:39:36.144Z,10.14
2022-11-16T00:42:02.425Z,10.11
2022-11-16T00:44:28.631Z,10.19
2022-11-16T00:46:54.855Z,10.24
2022-11-16T00:49:21.073Z,10.26
2022-11-16T00:51:47.343Z,10.14
2022-11-16T00:54:13.598Z,10.16
2022-11-16T00:56:39.848Z,10.13
2022-11-16T00:59:06.075Z,9.88
2022-11-16T01:01:32.331Z,9.91
2022-11-16T01:03:58.588Z,9.69
2022-11-16T01:06:24.872Z,10.09
2022-11-16T01:08:51.124Z,9.78
2022-11-16T01:11:36.146Z,10.02
2022-11-16T01:14:02.347Z,10.12
2022-11-16T01:16:31.778Z,10.03
2022-11-16T01:18:58.004Z,10.07
2022-11-16T01:21:24.348Z,9.97
2022-11-16T01:23:50.552Z,10.17
2022-11-16T01:26:16.783Z,10.16
2022-11-16T01:28:42.983Z,10.14
2022-11-16T01:31:09.218Z,10.08
2022-11-16T01:33:35.517Z,10.10
2022-11-16T01:36:01.806Z,10.25
2022-11-16T01:38:29.939Z,10.48
2022-11-16T01:40:56.480Z,10.54
2022-11-16T08:18:20.257Z,10.39
2022-11-16T08:20:46.622Z,10.53
2022-11-16T08:23:13.024Z,10.63
2022-11-16T08:25:39.316Z,10.69
2022-11-16T08:28:05.745Z,10.81
2022-11-16T08:30:32.024Z,10.93
2022-11-16T08:32:58.313Z,11.01
2022-11-16T08:35:24.673Z,10.93
2022-11-16T08:37:50.974Z,10.93
2022-11-16T08:40:17.307Z,11.04
2022-11-16T08:42:44.093Z,11.24
2022-11-16T08:45:10.486Z,11.39
2022-11-16T08:47:36.791Z,11.47
2022-11-16T08:50:03.543Z,11.39
2022-11-16T08:52:29.821Z,11.65
2022-11-16T08:54:59.143Z,11.76
2022-11-16T08:57:25.420Z,11.98
2022-11-16T08:59:51.699Z,12.15
2022-11-16T09:02:25.226Z,12.21
2022-11-16T09:04:51.625Z,12.28
2022-11-16T09:07:17.953Z,12.17
2022-11-16T09:09:44.313Z,12.17
2022-11-16T09:12:10.576Z,12.22
2022-11-16T09:14:36.856Z,12.42
2022-11-16T09:17:03.157Z,12.40
2022-11-16T09:19:29.471Z,12.66
2022-11-16T09:21:55.867Z,12.73
2022-11-16T09:24:22.143Z,12.75
2022-11-16T09:26:48.427Z,12.91
2022-11-16T09:29:14.712Z,12.89
2022-11-16T09:31:40.999Z,12.96
2022-11-16T09:34:07.443Z,13.16
2022-11-16T09:36:33.730Z,13.08
2022-11-16T09:41:47.218Z,13.23
2022-11-16T09:44:13.553Z,13.18
2022-11-16T09:46:39.814Z,13.39
2022-11-16T09:49:10.517Z,13.40
2022-11-16T09:51:43.606Z,13.42
2022-11-16T09:54:10.023Z,13.42
2022-11-16T09:56:36.791Z,13.35
2022-11-16T09:59:03.208Z,13.20
2022-11-16T10:01:29.579Z,13.16
2022-11-16T10:03:55.901Z,13.14
2022-11-16T10:06:22.234Z,13.10
2022-11-16T10:08:48.575Z,13.10
2022-11-16T10:11:14.861Z,13.18
2022-11-16T10:13:41.154Z,13.25
2022-11-16T10:16:07.757Z,13.19
2022-11-16T10:18:34.051Z,13.04
2022-11-16T10:21:00.415Z,13.10
2022-11-16T10:23:26.695Z,13.21
2022-11-16T10:25:53.329Z,13.10
2022-11-16T10:28:19.677Z,13.31
2022-11-16T10:30:45.967Z,13.10
2022-11-16T10:33:12.391Z,13.31
2022-11-16T10:35:39.600Z,13.29
2022-11-16T10:38:08.993Z,13.29
2022-11-16T10:40:35.312Z,13.33
2022-11-16T10:43:01.667Z,13.49
2022-11-16T10:45:27.949Z,13.46
2022-11-16T10:47:54.279Z,13.43
2022-11-16T10:50:20.746Z,13.46
2022-11-16T10:52:47.087Z,13.58
2022-11-16T10:55:13.369Z,13.61
2022-11-16T10:57:39.645Z,13.57
2022-11-16T11:00:12.540Z,13.71
2022-11-16T11:02:39.838Z,13.58
2022-11-16T11:05:06.111Z,13.71
2022-11-16T11:07:32.493Z,13.78
2022-11-16T11:09:58.870Z,13.82
2022-11-16T11:12:40.568Z,13.65
2022-11-16T11:15:07.027Z,13.69
2022-11-16T11:17:33.315Z,13.71
2022-11-16T11:20:00.504Z,13.63
2022-11-16T11:22:26.819Z,13.51
2022-11-16T11:24:53.094Z,13.53
2022-11-16T11:27:19.396Z,13.48
2022-11-16T11:29:45.789Z,13.54
2022-11-16T11:35:03.513Z,13.74
2022-11-16T11:37:30.442Z,13.73
2022-11-16T11:39:56.733Z,13.60
2022-11-16T11:42:23.103Z,13.61
2022-11-16T11:44:50.417Z,13.71
2022-11-16T11:47:50.789Z,13.85
2022-11-16T11:50:03.039Z,13.81
2022-11-16T11:52:29.362Z,13.96
2022-11-16T11:54:55.767Z,13.83
2022-11-16T11:57:23.123Z,13.93
2022-11-16T11:59:49.522Z,13.90
2022-11-16T12:02:15.980Z,14.04
2022-11-16T12:04:42.304Z,13.90
2022-11-16T12:07:08.658Z,13.80
2022-11-16T12:09:34.966Z,13.84
2022-11-16T12:12:01.286Z,13.73
2022-11-16T12:14:27.567Z,13.83
2022-11-16T12:16:53.859Z,13.79
2022-11-16T12:19:20.163Z,13.89
2022-11-16T12:21:46.696Z,13.70
2022-11-16T12:24:13.067Z,13.76
2022-11-16T12:26:39.692Z,13.73
2022-11-16T12:29:05.960Z,13.70
2022-11-16T12:31:32.254Z,13.73
2022-11-16T12:33:58.603Z,13.66
2022-11-16T12:36:24.920Z,13.74
2022-11-16T12:38:51.240Z,14.00
2022-11-16T12:41:17.614Z,13.95
2022-11-16T12:43:43.893Z,14.05
2022-11-16T12:46:10.425Z,14.12
2022-11-16T12:48:36.728Z,14.11
2022-11-16T12:51:02.993Z,14.06
2022-11-16T12:53:29.339Z,14.13
2022-11-16T12:55:55.601Z,13.99
2022-11-16T12:58:21.948Z,13.87
2022-11-16T13:00:48.334Z,13.82
2022-11-16T13:03:14.720Z,13.76
2022-11-16T13:05:41.050Z,13.69
2022-11-16T13:08:07.816Z,13.65
2022-11-16T13:10:34.112Z,13.47
2022-11-16T13:13:29.531Z,13.41
2022-11-16T13:15:47.908Z,13.34
2022-11-16T13:18:14.238Z,13.26
2022-11-16T13:20:40.579Z,13.19
2022-11-16T13:23:06.932Z,12.96
2022-11-16T13:25:33.213Z,12.85
2022-11-16T13:27:59.482Z,12.90
2022-11-16T13:30:25.760Z,12.82
2022-11-16T13:32:52.054Z,12.74
2022-11-16T13:35:18.544Z,12.55
2022-11-16T13:37:44.917Z,12.57
2022-11-16T13:40:11.338Z,12.62
2022-11-16T13:42:38.194Z,12.56
2022-11-16T13:45:04.475Z,12.49
2022-11-16T13:47:30.936Z,12.57
2022-11-16T13:49:57.420Z,12.32
2022-11-16T13:52:31.566Z,12.30
2022-11-16T13:55:06.625Z,12.37
2022-11-16T13:57:32.928Z,11.91
2022-11-16T13:59:59.204Z,12.03
2022-11-16T14:02:25.566Z,11.99
2022-11-16T14:04:51.838Z,11.88
2022-11-16T14:07:18.245Z,11.90
2022-11-16T14:09:44.647Z,11.81
2022-11-16T14:12:10.947Z,11.62
2022-11-16T14:14:37.216Z,11.56
2022-11-16T14:17:03.547Z,11.60
2022-11-16T14:19:29.857Z,11.57
2022-11-16T14:21:56.131Z,11.56
2022-11-16T14:24:22.417Z,11.56
2022-11-16T14:26:48.834Z,11.40
2022-11-16T14:29:15.489Z,11.38
2022-11-16T14:31:41.781Z,11.38
2022-11-16T14:34:08.213Z,11.41
2022-11-16T14:36:34.499Z,11.28
2022-11-16T14:39:00.937Z,11.25
2022-11-16T14:41:27.213Z,11.26
2022-11-16T14:43:53.506Z,11.22
2022-11-16T14:46:19.768Z,11.28
2022-11-16T14:48:46.119Z,11.24
2022-11-16T14:51:12.486Z,11.26
2022-11-16T14:53:38.870Z,11.08
2022-11-16T14:56:05.268Z,11.07
2022-11-16T14:58:31.907Z,10.90
2022-11-16T15:00:58.169Z,10.77
2022-11-16T15:03:24.596Z,10.83
2022-11-16T15:05:50.970Z,10.84
2022-11-16T15:08:17.517Z,11.00
2022-11-16T15:10:46.925Z,10.90
2022-11-16T15:13:15.774Z,10.76
2022-11-16T15:15:42.057Z,10.74
2022-11-16T15:18:08.525Z,10.63
2022-11-16T15:20:34.906Z,10.79
2022-11-16T15:23:01.219Z,10.72
2022-11-16T15:25:27.583Z,10.73
2022-11-16T15:27:53.917Z,10.68
2022-11-16T15:30:20.218Z,10.65
2022-11-16T15:32:46.532Z,10.51
2022-11-16T15:35:12.867Z,10.57
2022-11-16T15:37:39.139Z,10.57
2022-11-16T15:40:05.482Z,10.47
2022-11-16T15:42:31.833Z,10.45
2022-11-16T15:44:58.109Z,10.45
2022-11-16T15:47:24.379Z,10.42
2022-11-16T15:49:52.928Z,10.34
2022-11-16T15:52:19.319Z,10.38
2022-11-16T15:55:04.041Z,10.35
2022-11-16T15:57:30.338Z,10.33
2022-11-16T15:59:57.099Z,10.28
2022-11-16T16:02:23.401Z,10.25
2022-11-16T16:04:49.700Z,10.55
2022-11-16T16:07:16.409Z,10.35
2022-11-16T16:09:42.695Z,10.32
2022-11-16T16:12:08.970Z,10.18
2022-11-16T16:14:35.244Z,10.29
2022-11-16T16:17:01.523Z,10.35
2022-11-16T16:19:27.838Z,10.21
2022-11-16T16:21:54.107Z,10.18
2022-11-16T16:24:20.457Z,10.10
2022-11-16T16:26:46.766Z,9.91
2022-11-16T16:29:13.032Z,9.98
2022-11-16T16:31:39.325Z,10.05
2022-11-16T16:34:05.609Z,10.35
2022-11-16T16:36:31.922Z,10.12
2022-11-16T16:38:58.412Z,10.16
2022-11-16T16:41:24.940Z,10.17
2022-11-16T16:43:51.238Z,10.11
2022-11-16T16:46:17.639Z,10.06
2022-11-16T16:48:44.843Z,10.12
2022-11-16T16:51:11.251Z,10.15
2022-11-16T16:53:37.513Z,10.17
2022-11-16T16:56:03.845Z,10.09
2022-11-16T16:58:30.124Z,10.08
2022-11-16T17:01:01.139Z,10.12
2022-11-16T17:03:27.842Z,10.20
2022-11-16T17:05:54.318Z,10.18
2022-11-16T17:08:21.068Z,10.14
2022-11-16T17:10:47.339Z,10.13
2022-11-16T17:13:13.610Z,10.03
2022-11-16T17:15:39.874Z,9.99
2022-11-16T17:18:06.158Z,9.95
2022-11-16T17:20:32.457Z,9.99
2022-11-16T17:22:58.761Z,9.88
2022-11-16T17:25:25.039Z,9.93
2022-11-16T17:27:51.321Z,9.91
2022-11-16T17:30:17.586Z,9.95
2022-11-16T17:32:43.920Z,9.93
2022-11-16T17:35:10.350Z,10.08
2022-11-16T17:37:36.588Z,9.99
2022-11-16T17:40:02.865Z,10.04
2022-11-16T17:42:29.141Z,10.00
2022-11-16T17:44:55.486Z,10.07
2022-11-16T17:47:24.926Z,9.99
2022-11-16T17:49:51.476Z,10.04
2022-11-16T17:52:22.191Z,9.96
2022-11-16T17:54:48.821Z,9.98
2022-11-16T17:57:15.266Z,10.03
2022-11-16T17:59:41.642Z,10.01
2022-11-16T18:02:07.925Z,10.24
2022-11-16T18:04:34.253Z,10.11
2022-11-16T18:07:01.225Z,10.11
2022-11-16T18:09:27.525Z,10.13
2022-11-16T18:11:53.800Z,10.03
2022-11-16T18:14:20.075Z,10.13
2022-11-16T18:16:47.889Z,10.08
2022-11-16T18:19:14.215Z,10.02
2022-11-16T18:21:40.511Z,10.16
2022-11-16T18:24:07.147Z,10.04
2022-11-16T18:26:33.441Z,10.20
2022-11-16T18:28:59.745Z,10.10
2022-11-16T18:31:26.008Z,10.06
2022-11-16T18:33:52.392Z,10.04
2022-11-16T18:36:18.689Z,10.10
2022-11-16T18:38:45.007Z,10.31
2022-11-16T18:41:11.276Z,10.05
2022-11-16T18:43:37.812Z,10.10
2022-11-16T18:46:04.320Z,10.01
2022-11-16T18:48:30.592Z,10.08
2022-11-16T18:50:56.896Z,10.15
2022-11-16T18:53:23.189Z,10.14
2022-11-16T18:55:57.629Z,10.15
2022-11-16T18:58:49.199Z,10.02
2022-11-16T19:01:11.085Z,10.03
2022-11-16T19:03:37.713Z,10.00
2022-11-16T19:06:04.088Z,9.95
2022-11-16T19:08:30.351Z,9.99
2022-11-16T19:10:56.663Z,9.92
2022-11-16T19:13:22.937Z,9.94
2022-11-16T19:15:50.094Z,9.87
2022-11-16T19:18:21.777Z,9.85
2022-11-16T19:20:48.413Z,9.99
2022-11-16T19:23:14.828Z,9.92
2022-11-16T19:25:41.101Z,9.91
2022-11-16T19:28:10.793Z,9.71
2022-11-16T19:30:37.068Z,9.77
2022-11-16T19:33:04.033Z,9.74
2022-11-16T19:35:30.296Z,9.55
2022-11-16T19:37:57.492Z,9.58
2022-11-16T19:40:25.168Z,9.61
2022-11-16T19:42:51.677Z,9.73
2022-11-16T19:45:17.968Z,9.73
2022-11-16T19:47:44.550Z,9.69
2022-11-16T19:50:11.720Z,9.50
2022-11-16T19:52:38.212Z,9.41
2022-11-16T19:55:09.994Z,9.57
2022-11-16T19:57:36.282Z,9.51
2022-11-16T20:00:02.697Z,9.46
2022-11-16T20:02:29.064Z,9.46
2022-11-16T20:04:55.376Z,9.46
2022-11-16T20:07:21.756Z,9.44
2022-11-16T20:09:53.091Z,9.34
2022-11-16T20:12:19.731Z,9.37
2022-11-16T20:14:46.182Z,9.37
2022-11-16T20:17:13.241Z,9.30
2022-11-16T20:19:39.439Z,9.27
2022-11-16T20:22:08.351Z,9.49
2022-11-16T20:24:34.662Z,9.32
2022-11-16T20:27:00.907Z,9.19
2022-11-16T20:29:28.804Z,9.19
2022-11-16T20:31:55.096Z,9.23
2022-11-16T20:34:22.412Z,9.13
2022-11-16T20:36:53.829Z,9.11
2022-11-16T20:39:20.539Z,9.10
2022-11-16T20:41:47.658Z,9.06
2022-11-16T20:44:22.185Z,9.03
2022-11-16T20:46:48.952Z,9.05
2022-11-16T20:49:15.203Z,9.06
2022-11-16T20:51:41.500Z,9.15
2022-11-16T20:54:07.926Z,9.16
2022-11-16T20:56:34.382Z,9.08
2022-11-16T20:59:00.845Z,8.99
2022-11-16T21:01:33.343Z,9.05
2022-11-16T21:03:59.703Z,8.99
2022-11-16T21:06:26.260Z,8.96
2022-11-16T21:08:52.559Z,8.98
2022-11-16T21:11:18.935Z,8.89
2022-11-16T21:14:04.002Z,8.93
2022-11-16T21:16:30.284Z,8.98
2022-11-16T21:18:56.650Z,9.00
2022-11-16T21:21:22.895Z,8.96
2022-11-16T21:23:52.386Z,9.03
2022-11-16T21:26:18.662Z,8.87
2022-11-16T21:28:45.459Z,8.95
2022-11-16T21:31:11.727Z,8.89
2022-11-16T21:33:38.257Z,8.90
2022-11-16T21:36:05.001Z,9.02
2022-11-16T21:38:31.284Z,9.14
2022-11-16T21:40:57.603Z,9.15
2022-11-16T21:43:23.874Z,9.16
2022-11-16T21:45:51.048Z,8.97
2022-11-16T21:48:17.321Z,9.12
2022-11-16T21:50:43.530Z,8.94
2022-11-16T21:53:09.766Z,8.95
2022-11-16T21:55:36.008Z,8.99
2022-11-16T21:58:05.262Z,9.12
2022-11-16T22:00:31.562Z,9.09
2022-11-16T22:02:57.859Z,9.06
2022-11-16T22:05:43.075Z,9.11
2022-11-16T22:08:09.279Z,9.31
2022-11-16T22:10:35.517Z,9.10
2022-11-16T22:13:01.787Z,9.13
2022-11-16T22:15:28.121Z,9.14
2022-11-16T22:17:54.342Z,9.23
2022-11-16T22:20:21.035Z,9.16
2022-11-16T22:22:47.248Z,9.17
2022-11-16T22:25:16.856Z,9.14
2022-11-16T22:28:13.487Z,9.05
2022-11-16T22:30:29.298Z,8.98
2022-11-16T22:32:55.527Z,8.97
2022-11-16T22:35:21.745Z,8.94
2022-11-16T22:37:47.973Z,9.05
2022-11-16T22:40:17.762Z,8.92
2022-11-16T22:42:44.266Z,8.95
2022-11-16T22:45:10.492Z,8.92
2022-11-16T22:47:36.739Z,8.96
2022-11-16T22:50:02.956Z,8.96
2022-11-16T22:52:29.305Z,9.01
2022-11-16T22:54:55.507Z,8.92
2022-11-16T22:57:25.721Z,8.98
2022-11-16T22:59:51.948Z,9.08
2022-11-16T23:02:18.277Z,8.99
2022-11-16T23:04:44.628Z,9.04
2022-11-16T23:07:10.873Z,9.42
2022-11-16T23:09:37.122Z,9.07
2022-11-16T23:12:21.975Z,8.85
2022-11-16T23:15:06.917Z,8.87
2022-11-16T23:17:33.120Z,8.85
2022-11-16T23:20:18.288Z,8.85
2022-11-16T23:23:02.947Z,9.02
2022-11-16T23:25:47.741Z,8.88
2022-11-16T23:28:14.033Z,8.93
2022-11-16T23:30:40.244Z,8.88
2022-11-16T23:33:06.513Z,8.79
2022-11-16T23:35:32.723Z,8.80
2022-11-16T23:37:59.024Z,8.80
2022-11-16T23:40:25.245Z,8.75
2022-11-16T23:43:10.213Z,8.85
2022-11-16T23:45:36.457Z,8.88
2022-11-16T23:48:02.700Z,8.76
2022-11-16T23:50:28.956Z,8.82
2022-11-16T23:52:55.163Z,8.94
2022-11-16T23:55:23.041Z,8.79
2022-11-16T23:57:49.318Z,8.92
